Time;durP1;ratioP1;P1;durP2;ratioP2;P2;SDS_P1;SDS_P2;PMS_P1;PMS_P2;Temp;Humidity;BMP_temperature;BMP_pressure;BME280_temperature;BME280_humidity;BME280_pressure;Samples;Min_cycle;Max_cycle;Signal;HPM_P1;HPM_P2
2023/01/09 00:01:21;;;;;;;0.43;0.43;;;6.90;99.90;;;;;;4975827;28;20044;-67
2023/01/09 00:03:46;;;;;;;0.00;0.00;;;6.80;99.90;;;;;;4977248;28;20018;-67
2023/01/09 00:06:13;;;;;;;0.40;0.40;;;6.90;99.90;;;;;;4975223;28;20107;-72
2023/01/09 00:08:39;;;;;;;0.08;0.08;;;6.90;99.90;;;;;;4975103;28;20045;-65
2023/01/09 00:11:05;;;;;;;1.08;0.63;;;6.90;99.90;;;;;;4974300;28;20114;-64
2023/01/09 00:13:31;;;;;;;0.10;0.10;;;6.70;99.90;;;;;;4993797;28;20407;-71
2023/01/09 00:15:58;;;;;;;0.10;0.10;;;6.70;99.90;;;;;;4993878;28;20033;-65
2023/01/09 00:18:24;;;;;;;0.93;0.35;;;6.70;99.90;;;;;;4976689;28;20034;-65
2023/01/09 00:20:50;;;;;;;15.55;0.65;;;6.90;99.90;;;;;;4994459;28;20023;-65
2023/01/09 00:23:16;;;;;;;0.08;0.08;;;6.90;99.90;;;;;;4994006;28;20493;-65
2023/01/09 00:25:42;;;;;;;1.75;0.73;;;6.80;99.90;;;;;;4994331;28;20022;-67
2023/01/09 00:28:08;;;;;;;0.10;0.10;;;6.70;99.90;;;;;;4994458;28;20439;-65
2023/01/09 00:30:33;;;;;;;0.47;0.43;;;6.70;99.90;;;;;;4976386;28;20495;-65
2023/01/09 00:32:59;;;;;;;0.20;0.20;;;6.60;99.90;;;;;;4993532;28;20061;-65
2023/01/09 00:35:27;;;;;;;0.35;0.35;;;6.50;99.90;;;;;;4994149;28;20019;-64
2023/01/09 00:37:53;;;;;;;0.52;0.15;;;6.50;99.90;;;;;;4993255;28;20030;-65
2023/01/09 00:40:19;;;;;;;3.05;0.45;;;6.50;99.90;;;;;;4993468;28;20018;-64
2023/01/09 00:42:52;;;;;;;1.67;0.80;;;6.40;99.90;;;;;;4960302;28;20042;-66
2023/01/09 00:45:27;;;;;;;0.28;0.28;;;6.40;99.90;;;;;;4976013;28;20364;-65
2023/01/09 00:47:58;;;;;;;0.20;0.20;;;6.40;99.90;;;;;;4994272;28;20030;-69
2023/01/09 00:50:27;;;;;;;1.85;0.43;;;6.30;99.90;;;;;;4993196;28;20034;-67
2023/01/09 00:52:56;;;;;;;0.00;0.00;;;6.30;99.90;;;;;;4994211;28;20046;-67
2023/01/09 00:55:22;;;;;;;1.42;0.95;;;6.30;99.90;;;;;;4994491;28;20387;-65
2023/01/09 00:57:48;;;;;;;0.65;0.63;;;6.30;99.90;;;;;;4993935;28;20057;-65
2023/01/09 01:00:14;;;;;;;0.10;0.10;;;6.40;99.90;;;;;;4993394;28;20034;-65
2023/01/09 01:02:40;;;;;;;2.50;1.45;;;6.40;99.90;;;;;;4993524;28;20732;-65
2023/01/09 01:08:16;;;;;;;0.00;0.00;;;6.40;99.90;;;;;;4924725;29;20044;-68
2023/01/09 01:10:42;;;;;;;0.20;0.20;;;6.20;99.90;;;;;;4934566;29;20469;-66
2023/01/09 01:13:08;;;;;;;0.93;0.73;;;6.20;99.90;;;;;;4962416;28;20077;-68
2023/01/09 01:15:37;;;;;;;1.17;0.57;;;6.20;99.90;;;;;;4993987;28;20113;-66
2023/01/09 01:18:03;;;;;;;0.50;0.50;;;6.20;99.90;;;;;;4976362;28;20042;-71
2023/01/09 01:20:28;;;;;;;0.30;0.30;;;6.20;99.90;;;;;;4976813;28;20065;-66
2023/01/09 01:22:54;;;;;;;1.08;0.65;;;6.20;99.90;;;;;;5007278;23;20046;-71
2023/01/09 01:25:20;;;;;;;9.93;0.60;;;6.20;99.90;;;;;;4974868;28;20225;-71
2023/01/09 01:27:46;;;;;;;0.22;0.22;;;6.20;99.90;;;;;;4992803;28;20025;-71
2023/01/09 01:30:13;;;;;;;0.10;0.10;;;6.10;99.90;;;;;;4992468;28;20046;-71
2023/01/09 01:32:39;;;;;;;0.65;0.32;;;6.10;99.90;;;;;;4992456;28;20030;-67
2023/01/09 01:35:06;;;;;;;1.88;0.88;;;6.10;99.90;;;;;;4992827;28;20379;-67
2023/01/09 01:37:33;;;;;;;1.23;1.13;;;6.00;99.90;;;;;;4992795;28;20038;-71
2023/01/09 01:39:59;;;;;;;0.45;0.30;;;6.10;99.90;;;;;;4991089;28;20049;-71
2023/01/09 01:42:25;;;;;;;0.73;0.68;;;6.20;99.90;;;;;;4975217;28;20491;-71
2023/01/09 01:45:13;;;;;;;0.47;0.47;;;6.10;99.90;;;;;;4992805;28;20464;-71
2023/01/09 01:47:58;;;;;;;0.03;0.03;;;6.10;99.90;;;;;;4993013;28;20038;-71
2023/01/09 01:50:47;;;;;;;1.70;0.73;;;6.20;99.90;;;;;;4992971;28;20117;-70
2023/01/09 01:53:35;;;;;;;1.02;1.00;;;6.10;99.90;;;;;;4974523;28;20398;-71
2023/01/09 01:56:01;;;;;;;0.35;0.35;;;6.10;99.90;;;;;;4992831;28;20030;-71
2023/01/09 01:58:27;;;;;;;0.40;0.30;;;6.10;99.90;;;;;;4992546;28;20053;-71
2023/01/09 02:00:53;;;;;;;0.47;0.47;;;6.20;99.90;;;;;;4992946;28;20054;-71
2023/01/09 02:03:23;;;;;;;0.88;0.43;;;6.20;99.90;;;;;;4992696;28;20491;-71
2023/01/09 02:05:49;;;;;;;6.30;1.55;;;6.20;99.90;;;;;;4979492;28;20038;-71
2023/01/09 02:08:16;;;;;;;0.10;0.10;;;6.20;99.90;;;;;;4992588;28;20114;-70
2023/01/09 02:10:43;;;;;;;0.10;0.10;;;6.20;99.90;;;;;;4992655;28;20391;-71
2023/01/09 02:13:10;;;;;;;4.00;0.40;;;6.20;99.90;;;;;;4992112;28;20034;-67
2023/01/09 02:15:42;;;;;;;0.30;0.30;;;6.20;99.90;;;;;;4992058;28;20058;-68
2023/01/09 02:18:30;;;;;;;1.55;0.70;;;6.30;99.90;;;;;;4996626;28;20038;-71
2023/01/09 02:21:22;;;;;;;3.63;0.82;;;6.30;99.90;;;;;;4996248;28;20029;-71
2023/01/09 02:23:54;;;;;;;0.90;0.40;;;6.30;99.90;;;;;;4996400;28;20042;-67
2023/01/09 02:26:20;;;;;;;;;;;6.30;99.90;;;;;;4991638;28;20026;-67
2023/01/09 02:29:04;;;;;;;0.55;0.25;;;6.30;99.90;;;;;;4996593;28;19912;-68
2023/01/09 02:31:52;;;;;;;1.63;1.20;;;6.20;99.90;;;;;;4983275;28;20161;-70
2023/01/09 02:34:45;;;;;;;0.10;0.10;;;6.30;99.90;;;;;;4995703;28;20105;-68
2023/01/09 02:37:21;;;;;;;0.13;0.13;;;6.40;99.90;;;;;;4981422;28;20027;-71
2023/01/09 02:40:14;;;;;;;1.73;0.57;;;6.40;99.90;;;;;;4960625;28;20411;-68
2023/01/09 02:42:42;;;;;;;0.63;0.63;;;6.50;99.90;;;;;;4976318;28;20066;-71
2023/01/09 02:45:08;;;;;;;17.52;2.17;;;6.50;99.90;;;;;;4975485;28;20031;-67
2023/01/09 02:47:37;;;;;;;1.92;0.68;;;6.50;99.90;;;;;;4977915;28;20403;-71
2023/01/09 02:50:08;;;;;;;0.88;0.45;;;6.60;99.90;;;;;;4978455;28;20022;-69
2023/01/09 02:53:04;;;;;;;2.20;0.40;;;6.60;99.90;;;;;;4975992;28;20042;-70
2023/01/09 02:55:49;;;;;;;1.75;0.50;;;6.70;99.90;;;;;;4957919;28;20468;-69
2023/01/09 02:58:33;;;;;;;2.22;1.08;;;6.70;99.90;;;;;;4959539;28;20122;-70
2023/01/09 03:01:05;;;;;;;0.50;0.30;;;6.70;99.90;;;;;;4980019;28;20503;-70
2023/01/09 03:03:39;;;;;;;0.30;0.30;;;6.80;99.90;;;;;;4978192;28;20328;-70
2023/01/09 03:06:14;;;;;;;0.90;0.43;;;6.90;99.90;;;;;;4976540;28;20035;-71
2023/01/09 03:08:45;;;;;;;0.00;0.00;;;6.90;99.90;;;;;;4976602;28;20049;-70
2023/01/09 03:11:11;;;;;;;9.85;0.90;;;6.90;99.90;;;;;;4975039;28;20038;-71
2023/01/09 03:13:43;;;;;;;2.95;0.55;;;6.90;99.90;;;;;;4975162;28;20118;-70
2023/01/09 03:16:13;;;;;;;1.08;0.30;;;6.90;99.90;;;;;;4977262;28;20031;-69
2023/01/09 03:18:40;;;;;;;0.73;0.35;;;6.90;99.90;;;;;;4978664;28;20039;-70
2023/01/09 03:21:07;;;;;;;4.22;0.90;;;6.90;99.90;;;;;;4976374;28;20047;-69
2023/01/09 03:23:58;;;;;;;1.77;0.45;;;6.90;99.90;;;;;;4976334;28;20039;-68
2023/01/09 03:26:25;;;;;;;9.07;1.95;;;7.00;99.90;;;;;;4984952;28;20379;-67
2023/01/09 03:28:51;;;;;;;0.95;0.60;;;6.90;99.90;;;;;;4994334;28;20052;-70
2023/01/09 03:31:17;;;;;;;0.95;0.93;;;6.90;99.90;;;;;;4995073;28;20451;-70
2023/01/09 03:33:43;;;;;;;0.50;0.50;;;7.00;99.90;;;;;;4994894;28;20081;-70
2023/01/09 03:36:11;;;;;;;2.63;0.90;;;7.00;99.90;;;;;;4995019;28;20053;-70
2023/01/09 03:38:37;;;;;;;1.92;0.70;;;7.00;99.90;;;;;;4977162;28;20068;-71
2023/01/09 03:41:03;;;;;;;0.20;0.20;;;7.10;99.90;;;;;;4994794;28;20786;-70
2023/01/09 03:43:29;;;;;;;2.83;0.82;;;7.00;99.90;;;;;;4994920;28;20050;-67
2023/01/09 03:45:55;;;;;;;0.95;0.55;;;7.00;99.90;;;;;;4994897;28;20052;-70
2023/01/09 03:48:21;;;;;;;0.30;0.30;;;7.10;99.90;;;;;;4977224;28;20037;-70
2023/01/09 03:50:50;;;;;;;2.92;0.77;;;7.10;99.90;;;;;;4994922;28;20041;-71
2023/01/09 03:53:16;;;;;;;0.70;0.50;;;7.10;99.90;;;;;;4976879;28;20399;-70
2023/01/09 03:55:47;;;;;;;0.25;0.25;;;7.10;99.90;;;;;;4994954;28;20041;-67
2023/01/09 03:58:14;;;;;;;0.65;0.40;;;7.10;99.90;;;;;;4994615;28;20066;-70
2023/01/09 04:00:40;;;;;;;1.98;0.70;;;7.20;99.90;;;;;;4995045;28;20054;-69
2023/01/09 04:03:07;;;;;;;6.18;0.90;;;7.20;99.90;;;;;;4994370;28;20057;-69
2023/01/09 04:05:34;;;;;;;19.40;1.23;;;7.20;99.90;;;;;;4994901;28;20014;-69
2023/01/09 04:08:00;;;;;;;5.72;1.35;;;7.20;99.90;;;;;;4994421;28;20460;-70
2023/01/09 04:10:26;;;;;;;3.90;0.98;;;7.20;99.90;;;;;;4994404;28;20026;-70
2023/01/09 04:12:52;;;;;;;0.63;0.52;;;7.20;99.90;;;;;;4994408;28;20060;-71
2023/01/09 04:15:18;;;;;;;3.70;0.75;;;7.20;99.90;;;;;;4994407;28;20030;-69
2023/01/09 04:17:44;;;;;;;2.83;1.00;;;7.20;99.90;;;;;;4994239;28;20022;-68
2023/01/09 04:20:10;;;;;;;8.10;0.98;;;7.20;99.90;;;;;;4994243;28;20498;-71
2023/01/09 04:22:36;;;;;;;12.20;0.30;;;7.30;99.90;;;;;;4976039;28;20050;-70
2023/01/09 04:25:02;;;;;;;2.38;0.75;;;7.20;99.90;;;;;;4994361;28;20073;-70
2023/01/09 04:27:28;;;;;;;3.60;0.65;;;7.30;99.90;;;;;;4976071;28;20113;-70
2023/01/09 04:29:54;;;;;;;0.10;0.10;;;7.30;99.90;;;;;;4994234;28;20109;-70
2023/01/09 04:32:19;;;;;;;0.73;0.65;;;7.30;99.90;;;;;;4993661;28;20073;-67
2023/01/09 04:34:45;;;;;;;1.02;0.50;;;7.20;99.90;;;;;;4982677;28;20037;-70
2023/01/09 04:37:11;;;;;;;5.70;1.10;;;7.30;99.90;;;;;;4974862;28;20081;-70
2023/01/09 04:39:38;;;;;;;1.35;0.50;;;7.20;99.90;;;;;;4961651;28;20050;-70
2023/01/09 04:42:04;;;;;;;2.10;0.80;;;7.20;99.90;;;;;;4974010;28;20031;-69
2023/01/09 04:44:29;;;;;;;3.63;1.40;;;7.30;99.90;;;;;;4973628;28;20073;-70
2023/01/09 04:46:57;;;;;;;6.65;0.63;;;7.30;99.90;;;;;;4975445;28;20034;-70
2023/01/09 04:49:23;;;;;;;4.10;0.98;;;7.30;99.90;;;;;;4975832;28;20015;-71
2023/01/09 04:51:49;;;;;;;1.13;0.75;;;7.40;99.90;;;;;;4973942;28;20084;-70
2023/01/09 04:54:15;;;;;;;2.30;0.77;;;7.40;99.90;;;;;;4972921;28;20019;-70
2023/01/09 04:56:41;;;;;;;4.85;1.17;;;7.50;99.90;;;;;;4977861;28;20112;-69
2023/01/09 04:59:07;;;;;;;1.15;0.82;;;7.50;99.90;;;;;;4974890;28;20029;-69
2023/01/09 05:01:34;;;;;;;2.63;0.85;;;7.50;99.90;;;;;;4975660;28;20082;-68
2023/01/09 05:04:00;;;;;;;4.80;0.82;;;7.50;99.90;;;;;;4974298;28;20426;-69
2023/01/09 05:06:26;;;;;;;2.53;0.50;;;7.40;99.90;;;;;;4973490;28;20034;-69
2023/01/09 05:08:52;;;;;;;5.82;2.53;;;7.50;99.90;;;;;;4973692;28;20039;-69
2023/01/09 05:11:18;;;;;;;1.67;0.73;;;7.50;99.90;;;;;;4972888;28;20097;-69
2023/01/09 05:13:44;;;;;;;2.13;0.90;;;7.50;99.90;;;;;;4978352;28;20019;-67
2023/01/09 05:16:10;;;;;;;2.95;0.77;;;7.60;99.90;;;;;;4982074;28;20033;-69
2023/01/09 05:18:36;;;;;;;11.00;1.98;;;7.50;99.90;;;;;;4975568;28;20157;-69
2023/01/09 05:21:02;;;;;;;7.40;1.60;;;7.60;99.90;;;;;;4973583;28;20121;-70
2023/01/09 05:23:28;;;;;;;2.78;0.68;;;7.60;99.90;;;;;;4973184;28;20034;-70
2023/01/09 05:25:53;;;;;;;4.13;1.30;;;7.60;99.90;;;;;;4973703;28;20023;-69
2023/01/09 05:28:19;;;;;;;2.55;1.08;;;7.60;99.90;;;;;;4955345;28;20038;-69
2023/01/09 05:30:46;;;;;;;3.42;0.88;;;7.60;99.90;;;;;;4977070;28;20019;-68
2023/01/09 05:33:11;;;;;;;0.32;0.32;;;7.60;99.90;;;;;;4956856;28;20038;-67
2023/01/09 05:35:37;;;;;;;1.30;0.75;;;7.60;99.90;;;;;;4975068;28;20019;-68
2023/01/09 05:38:03;;;;;;;9.15;1.63;;;7.60;99.90;;;;;;4973628;28;20106;-68
2023/01/09 05:40:29;;;;;;;1.42;0.52;;;7.50;99.90;;;;;;4973604;28;20379;-68
2023/01/09 05:42:55;;;;;;;0.20;0.20;;;7.40;99.90;;;;;;4973453;28;20027;-66
2023/01/09 05:45:20;;;;;;;7.03;1.23;;;7.40;99.90;;;;;;4971041;28;20468;-66
2023/01/09 05:47:46;;;;;;;1.55;0.73;;;7.50;99.90;;;;;;4976900;28;20471;-69
2023/01/09 05:50:13;;;;;;;5.47;1.38;;;7.50;99.90;;;;;;4975901;28;20023;-67
2023/01/09 05:52:39;;;;;;;0.85;0.43;;;7.50;99.90;;;;;;4976472;28;20494;-69
2023/01/09 05:55:06;;;;;;;0.25;0.20;;;7.50;99.90;;;;;;4976455;28;20026;-66
2023/01/09 05:57:32;;;;;;;0.17;0.17;;;7.50;99.90;;;;;;4978708;28;20030;-68
2023/01/09 05:59:58;;;;;;;8.13;1.40;;;7.60;99.90;;;;;;4980046;28;20034;-68
2023/01/09 06:02:24;;;;;;;7.32;0.30;;;7.60;99.90;;;;;;4978030;28;20031;-68
2023/01/09 06:04:50;;;;;;;3.50;0.60;;;7.60;99.90;;;;;;4977309;28;20019;-66
2023/01/09 06:07:15;;;;;;;3.63;1.00;;;7.60;99.90;;;;;;4977755;28;20622;-68
2023/01/09 06:09:41;;;;;;;11.57;1.55;;;7.70;99.90;;;;;;4976297;28;20027;-68
2023/01/09 06:12:07;;;;;;;0.17;0.10;;;7.60;99.90;;;;;;4976215;28;20066;-68
2023/01/09 06:14:33;;;;;;;4.07;1.08;;;7.70;99.90;;;;;;4985996;28;20486;-68
2023/01/09 06:16:58;;;;;;;0.47;0.47;;;7.50;99.90;;;;;;4984638;28;20372;-68
2023/01/09 06:19:24;;;;;;;13.82;1.73;;;7.50;99.90;;;;;;4978138;28;20495;-68
2023/01/09 06:21:52;;;;;;;3.67;1.90;;;7.50;99.90;;;;;;4960749;28;20045;-68
2023/01/09 06:24:18;;;;;;;0.85;0.63;;;7.40;99.90;;;;;;4977331;28;20042;-68
2023/01/09 06:26:44;;;;;;;0.43;0.35;;;7.40;99.90;;;;;;4976120;28;20026;-68
2023/01/09 06:29:10;;;;;;;1.90;0.63;;;7.30;99.90;;;;;;4944726;28;20026;-68
2023/01/09 06:31:36;;;;;;;0.55;0.40;;;7.30;99.90;;;;;;4977640;28;20057;-68
2023/01/09 06:34:01;;;;;;;4.38;0.30;;;7.40;99.90;;;;;;4981206;28;20019;-68
2023/01/09 06:36:27;;;;;;;8.40;0.98;;;7.40;99.90;;;;;;4976074;28;20384;-68
2023/01/09 06:38:53;;;;;;;6.72;2.53;;;7.40;99.90;;;;;;4959428;28;20023;-68
2023/01/09 06:41:18;;;;;;;2.58;0.77;;;7.40;99.90;;;;;;4975984;28;20106;-66
2023/01/09 06:43:44;;;;;;;6.20;2.05;;;7.50;99.90;;;;;;4974972;28;20026;-69
2023/01/09 06:46:10;;;;;;;7.80;0.95;;;7.50;99.90;;;;;;4977656;28;20037;-68
2023/01/09 06:48:36;;;;;;;0.20;0.05;;;7.50;99.90;;;;;;4978063;28;20046;-66
2023/01/09 06:51:02;;;;;;;6.75;0.60;;;7.50;99.90;;;;;;4975697;28;20392;-68
2023/01/09 06:53:28;;;;;;;1.90;0.43;;;7.50;99.90;;;;;;4975534;28;20039;-69
2023/01/09 06:55:53;;;;;;;0.82;0.30;;;7.50;99.90;;;;;;4977590;28;20029;-69
2023/01/09 06:58:19;;;;;;;0.00;0.00;;;7.60;99.90;;;;;;4978907;28;20031;-69
2023/01/09 07:00:48;;;;;;;6.47;2.05;;;7.70;99.90;;;;;;4976476;28;20102;-68
2023/01/09 07:03:18;;;;;;;2.75;1.50;;;7.80;99.90;;;;;;4976783;28;20031;-68
2023/01/09 07:05:45;;;;;;;1.00;0.43;;;7.70;99.90;;;;;;4983582;28;20026;-68
2023/01/09 07:08:10;;;;;;;4.63;1.38;;;7.70;99.90;;;;;;4995403;28;20033;-68
2023/01/09 07:10:36;;;;;;;0.70;0.30;;;7.60;99.90;;;;;;4995223;28;20418;-68
2023/01/09 07:13:03;;;;;;;13.65;1.08;;;7.70;99.90;;;;;;4995468;28;20036;-68
2023/01/09 07:15:28;;;;;;;1.08;0.70;;;7.70;99.90;;;;;;4994994;28;20101;-69
2023/01/09 07:17:54;;;;;;;0.20;0.08;;;7.80;99.90;;;;;;4994921;28;20442;-69
2023/01/09 07:20:20;;;;;;;6.05;0.57;;;7.80;99.90;;;;;;4995127;28;20054;-67
2023/01/09 07:22:46;;;;;;;0.10;0.10;;;7.90;99.90;;;;;;4994947;28;20034;-68
2023/01/09 07:25:12;;;;;;;3.38;1.08;;;7.80;99.90;;;;;;4994383;28;20042;-68
2023/01/09 07:27:38;;;;;;;1.13;0.80;;;7.90;99.90;;;;;;4975173;28;20081;-68
2023/01/09 07:30:05;;;;;;;0.40;0.30;;;7.90;99.90;;;;;;4974272;28;20089;-68
2023/01/09 07:32:32;;;;;;;4.68;1.55;;;7.80;99.90;;;;;;4973784;28;20480;-66
2023/01/09 07:34:58;;;;;;;1.42;0.50;;;7.90;99.90;;;;;;4972460;28;20436;-67
2023/01/09 07:37:24;;;;;;;4.43;0.90;;;8.00;99.90;;;;;;4978508;28;20050;-68
2023/01/09 07:39:50;;;;;;;0.20;0.20;;;7.90;99.90;;;;;;4976188;28;20058;-68
2023/01/09 07:42:16;;;;;;;4.95;0.75;;;8.00;99.90;;;;;;4975614;28;20019;-68
2023/01/09 07:44:41;;;;;;;10.52;1.08;;;8.00;99.90;;;;;;4976398;28;20023;-68
2023/01/09 07:47:07;;;;;;;4.90;0.63;;;7.90;99.90;;;;;;4957125;28;20722;-68
2023/01/09 07:49:33;;;;;;;7.40;1.77;;;7.80;99.90;;;;;;4977556;28;20062;-69
2023/01/09 07:54:54;;;;;;;6.53;1.27;;;7.80;99.90;;;;;;4972240;28;20050;-65
2023/01/09 07:57:19;;;;;;;2.05;0.68;;;7.80;99.90;;;;;;4974001;28;20030;-65
2023/01/09 07:59:45;;;;;;;2.58;0.32;;;7.80;99.90;;;;;;4973440;28;20177;-65
2023/01/09 08:02:11;;;;;;;0.52;0.52;;;7.80;99.90;;;;;;4973300;28;20380;-65
2023/01/09 08:04:37;;;;;;;9.82;0.70;;;7.80;99.90;;;;;;4972814;28;20038;-64
2023/01/09 08:07:03;;;;;;;4.40;1.15;;;7.80;99.90;;;;;;4973620;28;20027;-65
2023/01/09 08:09:29;;;;;;;12.00;1.80;;;7.80;99.90;;;;;;4973818;28;20097;-64
2023/01/09 08:11:56;;;;;;;1.08;0.98;;;7.80;99.90;;;;;;4973587;28;20031;-64
2023/01/09 08:14:22;;;;;;;7.18;1.45;;;7.80;99.90;;;;;;4970298;28;20023;-65
2023/01/09 08:16:47;;;;;;;2.47;0.95;;;7.80;99.90;;;;;;4974691;28;20031;-65
2023/01/09 08:19:13;;;;;;;2.90;0.90;;;7.80;99.90;;;;;;4974609;28;20109;-64
2023/01/09 08:21:39;;;;;;;0.77;0.60;;;7.90;99.90;;;;;;4974646;28;20130;-64
2023/01/09 08:24:05;;;;;;;2.78;0.93;;;7.80;99.90;;;;;;4974731;28;20572;-65
2023/01/09 08:26:31;;;;;;;2.28;0.55;;;7.90;99.90;;;;;;4974792;28;20031;-65
2023/01/09 08:28:57;;;;;;;7.35;2.80;;;7.80;99.90;;;;;;4974516;28;20038;-65
2023/01/09 08:31:23;;;;;;;3.88;1.33;;;7.80;99.90;;;;;;4974097;28;20081;-64
2023/01/09 08:33:49;;;;;;;4.97;1.50;;;7.90;99.90;;;;;;4974436;28;20041;-63
2023/01/09 08:36:14;;;;;;;7.13;1.67;;;7.80;99.90;;;;;;4974459;28;20019;-68
2023/01/09 08:38:40;;;;;;;6.80;2.78;;;7.80;99.90;;;;;;4975062;28;20113;-65
2023/01/09 08:49:20;;;;;;;3.70;1.17;;;7.70;99.90;;;;;;4989458;28;20435;-64
2023/01/09 08:51:45;;;;;;;1.45;0.65;;;7.70;99.90;;;;;;4966007;28;20030;-65
2023/01/09 08:54:11;;;;;;;0.10;0.10;;;7.70;99.90;;;;;;4973434;28;20487;-65
2023/01/09 08:56:37;;;;;;;3.85;1.77;;;7.80;99.90;;;;;;4954126;28;20062;-65
2023/01/09 08:59:03;;;;;;;3.92;0.63;;;7.70;99.90;;;;;;4971898;28;20027;-65
2023/01/09 09:01:29;;;;;;;1.40;0.60;;;7.70;99.90;;;;;;4970343;28;20031;-64
2023/01/09 09:03:55;;;;;;;1.75;0.73;;;7.70;99.90;;;;;;4970075;28;20047;-64
2023/01/09 09:06:20;;;;;;;2.45;0.63;;;7.80;99.90;;;;;;4955662;28;20479;-70
2023/01/09 09:08:47;;;;;;;1.85;0.50;;;7.80;99.90;;;;;;4972466;28;20488;-64
2023/01/09 09:11:12;;;;;;;0.22;0.20;;;7.80;99.90;;;;;;4971984;28;20392;-65
2023/01/09 09:13:38;;;;;;;7.40;1.65;;;7.80;99.90;;;;;;4973185;28;20034;-66
2023/01/09 09:16:04;;;;;;;3.88;1.75;;;7.80;99.90;;;;;;4973774;28;20031;-64
2023/01/09 09:18:30;;;;;;;6.55;1.00;;;7.80;99.90;;;;;;4973545;28;20147;-63
2023/01/09 09:20:56;;;;;;;6.03;1.13;;;7.80;99.90;;;;;;4973760;28;20031;-64
2023/01/09 09:23:22;;;;;;;1.17;0.88;;;7.80;99.90;;;;;;4973501;28;20034;-63
2023/01/09 09:25:48;;;;;;;6.93;1.00;;;7.80;99.90;;;;;;4972952;28;20043;-63
2023/01/09 09:28:14;;;;;;;10.02;1.30;;;7.80;99.90;;;;;;4956246;28;20035;-63
2023/01/09 09:30:39;;;;;;;1.88;0.85;;;7.80;99.90;;;;;;4973161;28;20034;-63
2023/01/09 09:33:06;;;;;;;7.75;2.00;;;7.90;99.90;;;;;;4973752;28;20104;-64
2023/01/09 09:35:32;;;;;;;4.70;0.40;;;7.90;99.90;;;;;;4940138;28;20022;-64
2023/01/09 09:38:01;;;;;;;7.10;0.85;;;7.90;99.90;;;;;;4973013;28;20415;-64
2023/01/09 09:40:56;;;;;;;0.30;0.30;;;7.90;99.90;;;;;;4973550;28;20039;-63
2023/01/09 09:46:26;;;;;;;0.52;0.52;;;8.10;99.90;;;;;;4976311;28;20030;-65
2023/01/09 09:49:04;;;;;;;2.47;1.23;;;8.10;99.90;;;;;;4973116;28;20076;-65
2023/01/09 09:51:35;;;;;;;5.60;1.27;;;8.00;99.90;;;;;;4973022;28;20046;-65
2023/01/09 09:54:11;;;;;;;25.25;0.90;;;8.00;99.90;;;;;;4972671;28;20469;-64
2023/01/09 09:56:48;;;;;;;7.00;1.30;;;8.00;99.90;;;;;;4973248;28;20046;-65
2023/01/09 09:59:23;;;;;;;5.57;1.42;;;8.00;99.90;;;;;;4973131;28;20038;-64
2023/01/09 10:02:01;;;;;;;1.73;1.13;;;8.10;99.90;;;;;;4972906;28;20105;-65
2023/01/09 10:04:31;;;;;;;0.77;0.77;;;8.10;99.90;;;;;;4988417;28;20027;-64
2023/01/09 10:07:05;;;;;;;1.65;0.68;;;8.10;99.90;;;;;;4972249;28;20069;-64
2023/01/09 10:09:53;;;;;;;0.95;0.88;;;8.30;99.90;;;;;;4972799;28;20027;-64
2023/01/09 10:12:42;;;;;;;5.97;1.20;;;8.30;99.90;;;;;;4972848;28;20030;-64
2023/01/09 10:15:42;;;;;;;2.08;1.20;;;8.20;99.90;;;;;;4972897;28;20375;-63
2023/01/09 10:18:31;;;;;;;1.95;0.77;;;8.30;99.90;;;;;;4972402;28;20035;-64
2023/01/09 10:21:06;;;;;;;1.00;0.82;;;8.30;99.90;;;;;;4961144;28;20146;-65
2023/01/09 10:23:47;;;;;;;3.17;1.50;;;8.30;99.90;;;;;;4973322;28;20101;-68
2023/01/09 10:26:27;;;;;;;1.63;0.63;;;8.50;99.90;;;;;;4954775;28;20038;-64
2023/01/09 10:29:05;;;;;;;4.68;1.52;;;8.30;99.90;;;;;;4964210;28;20019;-64
2023/01/09 10:31:44;;;;;;;2.55;1.35;;;8.30;99.90;;;;;;4973352;28;20049;-68
2023/01/09 10:34:26;;;;;;;7.03;1.27;;;8.40;99.90;;;;;;4973077;28;20445;-65
2023/01/09 10:37:27;;;;;;;8.35;2.25;;;8.20;99.90;;;;;;4973897;28;20035;-64
2023/01/09 10:40:06;;;;;;;2.80;0.82;;;8.20;99.90;;;;;;4962891;28;20117;-64
2023/01/09 10:42:39;;;;;;;2.15;0.85;;;8.50;99.90;;;;;;4976689;28;20022;-65
2023/01/09 10:45:27;;;;;;;3.42;1.27;;;8.60;99.90;;;;;;4976611;28;20031;-66
2023/01/09 10:48:00;;;;;;;9.00;1.48;;;8.90;99.90;;;;;;4974943;28;20081;-66
2023/01/09 10:50:34;;;;;;;3.13;1.00;;;8.60;99.90;;;;;;4976307;28;20027;-65
2023/01/09 10:53:11;;;;;;;2.92;1.17;;;8.50;99.90;;;;;;4976245;28;20567;-65
2023/01/09 10:55:46;;;;;;;0.45;0.40;;;9.00;99.90;;;;;;4976499;28;20109;-65
2023/01/09 10:58:15;;;;;;;0.10;0.10;;;9.30;99.90;;;;;;4976521;28;20472;-65
2023/01/09 11:00:42;;;;;;;1.75;1.08;;;9.50;99.90;;;;;;4976483;28;20106;-65
2023/01/09 11:03:20;;;;;;;2.83;1.10;;;9.70;99.90;;;;;;4976968;28;20030;-65
2023/01/09 11:05:54;;;;;;;7.28;2.10;;;9.40;99.90;;;;;;4959365;28;20034;-64
2023/01/09 11:08:26;;;;;;;0.45;0.30;;;9.30;99.90;;;;;;4975977;28;20035;-65
2023/01/09 11:10:57;;;;;;;1.50;0.40;;;9.40;99.90;;;;;;4975936;28;20046;-65
2023/01/09 11:13:28;;;;;;;1.20;0.90;;;9.90;99.90;;;;;;4958416;28;20443;-64
2023/01/09 11:16:09;;;;;;;1.20;1.10;;;9.20;99.90;;;;;;4976286;28;20026;-70
2023/01/09 11:18:46;;;;;;;3.30;0.90;;;9.20;99.90;;;;;;4975876;28;20074;-64
2023/01/09 11:21:31;;;;;;;2.10;1.23;;;9.30;99.90;;;;;;4976283;28;20054;-65
2023/01/09 11:24:20;;;;;;;3.80;1.35;;;9.40;99.90;;;;;;4958149;28;20086;-64
2023/01/09 11:26:51;;;;;;;0.22;0.22;;;9.70;99.90;;;;;;4975945;28;20022;-64
2023/01/09 11:29:24;;;;;;;11.07;1.53;;;10.00;99.90;;;;;;4975837;28;20078;-64
2023/01/09 11:31:53;;;;;;;6.53;1.05;;;10.10;99.90;;;;;;4975776;28;20039;-64
2023/01/09 11:34:22;;;;;;;1.70;1.05;;;10.10;99.90;;;;;;4975346;28;20031;-63
2023/01/09 11:36:52;;;;;;;2.83;2.58;;;9.90;99.90;;;;;;4976023;28;20387;-68
2023/01/09 11:39:21;;;;;;;1.65;1.00;;;9.80;99.90;;;;;;4975959;28;20438;-65
2023/01/09 11:41:55;;;;;;;5.50;1.75;;;9.50;99.90;;;;;;4975690;28;20074;-67
2023/01/09 11:44:22;;;;;;;0.68;0.68;;;9.20;99.90;;;;;;4975700;28;20022;-64
2023/01/09 11:46:47;;;;;;;8.82;1.40;;;9.20;99.90;;;;;;4975521;28;20086;-64
2023/01/09 11:49:19;;;;;;;5.43;1.58;;;9.00;99.90;;;;;;4975351;28;20023;-64
2023/01/09 11:51:45;;;;;;;9.68;1.38;;;9.20;99.90;;;;;;4974541;28;20050;-65
2023/01/09 11:54:29;;;;;;;1.55;0.73;;;9.30;99.90;;;;;;4975454;28;20448;-64
2023/01/09 11:56:55;;;;;;;4.40;1.55;;;9.20;99.90;;;;;;4975423;28;20030;-64
2023/01/09 11:59:27;;;;;;;9.23;1.83;;;9.20;99.90;;;;;;4975201;28;20092;-65
2023/01/09 12:02:05;;;;;;;2.35;1.60;;;9.20;99.90;;;;;;4975103;28;20026;-65
2023/01/09 12:04:57;;;;;;;2.40;1.73;;;9.40;99.90;;;;;;4975228;28;20054;-65
2023/01/09 12:07:43;;;;;;;6.05;1.73;;;9.30;99.90;;;;;;4970519;28;20038;-65
2023/01/09 12:10:47;;;;;;;4.82;1.38;;;9.20;99.90;;;;;;4975195;28;20498;-65
2023/01/09 12:13:35;;;;;;;5.72;2.25;;;9.10;99.90;;;;;;4934527;29;20154;-65
2023/01/09 12:16:12;;;;;;;10.68;1.92;;;9.20;99.90;;;;;;4934662;29;20076;-66
2023/01/09 12:18:49;;;;;;;4.28;0.60;;;9.00;99.90;;;;;;4950907;28;20098;-65
2023/01/09 12:21:34;;;;;;;6.28;2.00;;;9.10;99.90;;;;;;4974895;28;20567;-66
2023/01/09 12:24:19;;;;;;;4.32;1.70;;;9.00;99.90;;;;;;4957513;28;20041;-65
2023/01/09 12:26:50;;;;;;;1.65;1.27;;;8.90;99.90;;;;;;4974823;28;20042;-63
2023/01/09 12:29:48;;;;;;;2.50;1.75;;;9.00;99.90;;;;;;4974839;28;20507;-64
2023/01/09 12:32:38;;;;;;;8.25;2.08;;;9.00;99.90;;;;;;4951881;28;20146;-64
2023/01/09 12:35:16;;;;;;;4.80;2.17;;;8.90;99.90;;;;;;4989655;28;20147;-65
2023/01/09 12:37:55;;;;;;;7.00;1.80;;;8.90;99.90;;;;;;4974729;28;20528;-64
2023/01/09 12:40:40;;;;;;;5.35;1.67;;;9.30;99.90;;;;;;4974849;28;20049;-64
2023/01/09 12:43:34;;;;;;;4.22;1.60;;;9.40;99.90;;;;;;4962129;28;20085;-64
2023/01/09 12:46:21;;;;;;;2.70;1.65;;;9.30;99.90;;;;;;4972262;28;20476;-64
2023/01/09 12:48:55;;;;;;;4.82;2.17;;;9.30;99.90;;;;;;4974579;28;20030;-64
2023/01/09 12:51:32;;;;;;;12.25;4.15;;;9.30;99.90;;;;;;4956606;28;20505;-66
2023/01/09 12:54:15;;;;;;;2.70;2.60;;;9.30;99.90;;;;;;4974416;28;20396;-65
2023/01/09 12:56:48;;;;;;;2.85;1.98;;;9.30;99.90;;;;;;4957012;28;20035;-68
2023/01/09 12:59:37;;;;;;;2.60;1.70;;;9.20;99.90;;;;;;4974066;28;20047;-64
2023/01/09 13:02:44;;;;;;;10.05;2.88;;;9.00;99.90;;;;;;4974386;28;20150;-64
2023/01/09 13:05:22;;;;;;;6.75;2.28;;;8.90;99.90;;;;;;4972778;28;20475;-64
2023/01/09 13:08:05;;;;;;;8.77;2.47;;;9.10;99.90;;;;;;4974373;28;20454;-65
2023/01/09 13:10:39;;;;;;;1.85;1.02;;;9.40;99.90;;;;;;4973922;28;20034;-65
2023/01/09 13:13:15;;;;;;;15.63;1.65;;;9.50;99.90;;;;;;4974279;28;20053;-64
2023/01/09 13:15:48;;;;;;;5.68;1.80;;;9.50;99.90;;;;;;4974161;28;20102;-65
2023/01/09 13:18:23;;;;;;;3.95;0.93;;;9.20;99.90;;;;;;4973832;28;20039;-64
2023/01/09 13:20:55;;;;;;;0.10;0.10;;;9.30;99.90;;;;;;4974132;28;20031;-65
2023/01/09 13:23:48;;;;;;;4.70;1.80;;;9.40;99.90;;;;;;4974090;28;20110;-68
2023/01/09 13:26:33;;;;;;;0.85;0.75;;;9.40;99.90;;;;;;4974136;28;20042;-66
2023/01/09 13:29:12;;;;;;;16.70;2.47;;;9.40;99.90;;;;;;4988706;28;20081;-65
2023/01/09 13:32:04;;;;;;;11.07;2.03;;;9.30;99.90;;;;;;4973797;28;20529;-65
2023/01/09 13:34:33;;;;;;;1.20;0.93;;;9.40;99.90;;;;;;4973542;28;20039;-64